createdAt,value
2017-12-30T00:00:09.700Z,9.20
2017-12-30T00:01:16.496Z,8.50
2017-12-30T00:02:23.256Z,10.30
2017-12-30T00:03:30.016Z,16.50
2017-12-30T00:04:36.748Z,9.70
2017-12-30T00:05:43.481Z,12.30
2017-12-30T00:06:50.220Z,10.60
2017-12-30T00:07:57.033Z,10.20
2017-12-30T00:09:03.759Z,6.90
2017-12-30T00:10:10.480Z,5.50
2017-12-30T00:11:17.248Z,9.40
2017-12-30T00:12:23.971Z,12.10
2017-12-30T00:13:30.773Z,7.90
2017-12-30T00:14:37.543Z,8.60
2017-12-30T00:15:44.277Z,8.20
2017-12-30T00:16:51.040Z,7.10
2017-12-30T00:17:57.948Z,10.90
2017-12-30T00:19:04.672Z,9.90
2017-12-30T00:20:11.490Z,8.20
2017-12-30T00:21:18.284Z,10.00
2017-12-30T00:22:25.016Z,10.70
2017-12-30T00:23:31.748Z,8.40
2017-12-30T00:24:38.454Z,7.20
2017-12-30T00:25:45.257Z,11.10
2017-12-30T00:26:51.987Z,9.20
2017-12-30T00:27:58.787Z,6.70
2017-12-30T00:29:05.536Z,7.90
2017-12-30T00:30:12.275Z,12.00
2017-12-30T00:31:24.320Z,7.70
2017-12-30T00:32:31.145Z,6.20
2017-12-30T00:33:33.076Z,5.20
2017-12-30T00:34:39.797Z,11.20
2017-12-30T00:35:46.507Z,8.30
2017-12-30T00:36:53.291Z,10.30
2017-12-30T00:38:00.215Z,5.40
2017-12-30T00:39:07.099Z,9.60
2017-12-30T00:40:13.840Z,6.50
2017-12-30T00:41:20.556Z,9.60
2017-12-30T00:42:27.297Z,6.60
2017-12-30T00:43:34.003Z,9.60
2017-12-30T00:44:40.852Z,10.30
2017-12-30T00:45:47.567Z,9.30
2017-12-30T00:46:54.271Z,10.90
2017-12-30T00:48:01.013Z,10.00
2017-12-30T00:49:07.759Z,14.90
2017-12-30T00:50:14.581Z,15.30
2017-12-30T00:51:21.289Z,8.80
2017-12-30T00:52:28.103Z,6.60
2017-12-30T00:53:34.811Z,11.30
2017-12-30T00:54:41.700Z,8.90
2017-12-30T00:55:48.468Z,11.80
2017-12-30T00:56:55.264Z,5.60
2017-12-30T00:58:02.108Z,10.00
2017-12-30T00:59:08.868Z,11.30
2017-12-30T01:00:15.668Z,10.30
2017-12-30T01:01:22.555Z,11.00
2017-12-30T01:02:29.287Z,10.70
2017-12-30T01:03:36.073Z,8.00
2017-12-30T01:04:42.836Z,7.00
2017-12-30T01:05:49.660Z,12.50
2017-12-30T01:06:56.445Z,6.00
2017-12-30T01:08:03.431Z,11.30
2017-12-30T01:09:10.178Z,8.40
2017-12-30T01:10:16.965Z,9.00
2017-12-30T01:11:23.727Z,12.70
2017-12-30T01:12:30.521Z,9.10
2017-12-30T01:13:37.357Z,9.60
2017-12-30T01:14:44.143Z,9.10
2017-12-30T01:15:50.979Z,11.00
2017-12-30T01:16:57.755Z,11.00
2017-12-30T01:18:04.533Z,12.60
2017-12-30T01:19:11.406Z,18.70
2017-12-30T01:20:18.205Z,9.60
2017-12-30T01:21:25.000Z,10.80
2017-12-30T01:22:31.860Z,14.00
2017-12-30T01:23:38.649Z,8.10
2017-12-30T01:24:45.411Z,10.60
2017-12-30T01:25:52.332Z,13.50
2017-12-30T01:26:59.153Z,16.60
2017-12-30T01:28:05.929Z,12.30
2017-12-30T01:29:12.747Z,10.40
2017-12-30T01:30:19.649Z,8.20
2017-12-30T01:31:26.672Z,11.80
2017-12-30T01:32:33.433Z,11.10
2017-12-30T01:33:40.200Z,10.50
2017-12-30T01:34:47.013Z,14.10
2017-12-30T01:35:53.806Z,12.90
2017-12-30T01:37:00.602Z,10.40
2017-12-30T01:38:07.424Z,12.70
2017-12-30T01:39:14.450Z,7.60
2017-12-30T01:40:21.287Z,14.90
2017-12-30T01:41:28.129Z,13.70
2017-12-30T01:42:34.891Z,14.90
2017-12-30T01:43:41.684Z,12.70
2017-12-30T01:44:48.471Z,12.80
2017-12-30T01:45:55.266Z,13.80
2017-12-30T01:47:02.185Z,10.10
2017-12-30T01:48:09.191Z,11.80
2017-12-30T01:49:15.989Z,9.00
2017-12-30T01:50:22.791Z,14.60
2017-12-30T01:51:29.604Z,13.40
2017-12-30T01:52:36.471Z,9.00
2017-12-30T01:53:43.243Z,7.60
2017-12-30T01:54:50.050Z,10.50
2017-12-30T01:55:56.924Z,11.50
2017-12-30T01:57:03.723Z,13.60
2017-12-30T01:58:10.548Z,8.50
2017-12-30T01:59:17.365Z,10.50
2017-12-30T02:00:24.167Z,8.30
2017-12-30T02:01:30.975Z,10.50
2017-12-30T02:02:37.811Z,10.20
2017-12-30T02:03:44.629Z,8.60
2017-12-30T02:04:51.469Z,9.30
2017-12-30T02:05:58.249Z,11.50
2017-12-30T02:07:05.044Z,15.20
2017-12-30T02:08:11.836Z,12.90
2017-12-30T02:09:18.693Z,14.10
2017-12-30T02:10:25.496Z,10.00
2017-12-30T02:11:32.376Z,11.30
2017-12-30T02:12:39.184Z,10.70
2017-12-30T02:13:45.977Z,8.60
2017-12-30T02:14:52.748Z,16.80
2017-12-30T02:15:59.502Z,11.80
2017-12-30T02:17:06.296Z,10.00
2017-12-30T02:18:13.049Z,11.30
2017-12-30T02:19:19.764Z,9.90
2017-12-30T02:20:26.516Z,12.60
2017-12-30T02:21:33.373Z,13.70
2017-12-30T02:22:40.196Z,11.70
2017-12-30T02:23:46.951Z,11.60
2017-12-30T02:24:53.677Z,8.90
2017-12-30T02:26:00.444Z,9.50
2017-12-30T02:27:07.173Z,11.30
2017-12-30T02:28:13.933Z,11.90
2017-12-30T02:29:20.695Z,10.30
2017-12-30T02:30:27.528Z,10.50
2017-12-30T02:31:34.266Z,8.00
2017-12-30T02:32:41.028Z,6.00
2017-12-30T02:33:47.779Z,13.80
2017-12-30T02:34:54.627Z,15.30
2017-12-30T02:36:01.372Z,12.10
2017-12-30T02:37:08.236Z,9.10
2017-12-30T02:38:15.092Z,8.70
2017-12-30T02:39:21.825Z,11.60
2017-12-30T02:40:28.561Z,10.00
2017-12-30T02:41:35.312Z,14.00
2017-12-30T02:42:42.156Z,10.20
2017-12-30T02:43:48.899Z,8.10
2017-12-30T02:44:55.663Z,16.00
2017-12-30T02:46:02.446Z,7.30
2017-12-30T02:47:09.116Z,10.90
2017-12-30T02:48:15.916Z,10.70
2017-12-30T02:49:22.672Z,9.00
2017-12-30T02:50:29.491Z,12.40
2017-12-30T02:51:36.341Z,13.30
2017-12-30T02:52:43.081Z,11.10
2017-12-30T02:53:49.861Z,12.60
2017-12-30T02:54:56.604Z,11.40
2017-12-30T02:56:03.429Z,8.70
2017-12-30T02:57:10.180Z,13.70
2017-12-30T02:58:16.925Z,10.50
2017-12-30T02:59:23.683Z,6.80
2017-12-30T03:00:30.599Z,6.60
2017-12-30T03:01:37.313Z,12.10
2017-12-30T03:02:44.075Z,8.60
2017-12-30T03:03:50.828Z,11.70
2017-12-30T03:04:57.644Z,6.60
2017-12-30T03:06:04.478Z,7.50
2017-12-30T03:07:11.407Z,15.40
2017-12-30T03:08:18.170Z,20.40
2017-12-30T03:09:24.973Z,10.80
2017-12-30T03:10:31.746Z,9.40
2017-12-30T03:11:38.507Z,11.00
2017-12-30T03:12:45.392Z,12.60
2017-12-30T03:13:52.129Z,10.90
2017-12-30T03:14:58.992Z,9.30
2017-12-30T03:16:05.752Z,12.60
2017-12-30T03:17:12.552Z,12.10
2017-12-30T03:18:19.405Z,10.30
2017-12-30T03:19:26.191Z,10.00
2017-12-30T03:20:32.987Z,9.30
2017-12-30T03:21:39.857Z,11.20
2017-12-30T03:22:46.632Z,11.80
2017-12-30T03:23:53.400Z,7.40
2017-12-30T03:25:00.283Z,10.40
2017-12-30T03:26:07.082Z,12.40
2017-12-30T03:27:13.858Z,7.30
2017-12-30T03:28:20.757Z,8.40
2017-12-30T03:29:27.574Z,11.90
2017-12-30T03:30:34.356Z,8.90
2017-12-30T03:31:41.196Z,10.90
2017-12-30T03:32:48.000Z,7.40
2017-12-30T03:33:54.778Z,10.00
2017-12-30T03:35:01.632Z,13.10
2017-12-30T03:36:08.444Z,14.60
2017-12-30T03:37:15.237Z,9.90
2017-12-30T03:38:22.056Z,12.20
2017-12-30T03:39:28.827Z,10.50
2017-12-30T03:40:35.632Z,6.10
2017-12-30T03:41:42.532Z,10.00
2017-12-30T03:42:49.547Z,11.10
2017-12-30T03:43:56.348Z,10.40
2017-12-30T03:45:03.169Z,9.40
2017-12-30T03:46:09.964Z,10.20
2017-12-30T03:47:16.812Z,14.70
2017-12-30T03:48:23.593Z,17.20
2017-12-30T03:49:30.389Z,15.70
2017-12-30T03:50:37.269Z,12.40
2017-12-30T03:51:44.078Z,10.20
2017-12-30T03:52:50.914Z,9.60
2017-12-30T03:53:57.708Z,13.60
2017-12-30T03:55:04.533Z,9.60
2017-12-30T03:56:11.341Z,12.60
2017-12-30T03:57:18.197Z,14.50
2017-12-30T03:58:25.029Z,12.60
2017-12-30T03:59:31.850Z,10.70
2017-12-30T04:00:38.667Z,17.40
2017-12-30T04:01:45.517Z,9.30
2017-12-30T04:02:52.428Z,15.20
2017-12-30T04:03:59.256Z,11.40
2017-12-30T04:05:06.069Z,12.50
2017-12-30T04:06:12.921Z,10.10
2017-12-30T04:07:19.776Z,13.80
2017-12-30T04:08:26.703Z,11.30
2017-12-30T04:09:33.512Z,15.60
2017-12-30T04:10:40.336Z,9.10
2017-12-30T04:11:47.177Z,16.70
2017-12-30T04:12:54.108Z,13.30
2017-12-30T04:14:01.044Z,10.60
2017-12-30T04:15:07.939Z,9.90
2017-12-30T04:16:14.764Z,10.50
2017-12-30T04:17:21.670Z,13.90
2017-12-30T04:18:28.592Z,12.10
2017-12-30T04:19:35.410Z,16.10
2017-12-30T04:20:42.124Z,8.20
2017-12-30T04:21:48.863Z,13.70
2017-12-30T04:22:55.680Z,16.50
2017-12-30T04:24:02.408Z,14.90
2017-12-30T04:25:09.152Z,13.70
2017-12-30T04:26:15.879Z,11.10
2017-12-30T04:27:23.512Z,16.50
2017-12-30T04:28:29.775Z,15.50
2017-12-30T04:29:36.561Z,16.40
2017-12-30T04:30:43.280Z,14.90
2017-12-30T04:31:50.112Z,16.50
2017-12-30T04:32:56.832Z,14.90
2017-12-30T04:34:03.701Z,13.10
2017-12-30T04:35:10.464Z,16.50
2017-12-30T04:36:17.192Z,11.20
2017-12-30T04:37:23.974Z,11.30
2017-12-30T04:38:30.808Z,17.20
2017-12-30T04:39:37.556Z,15.50
2017-12-30T04:40:44.339Z,15.90
2017-12-30T04:41:51.152Z,12.90
2017-12-30T04:42:57.920Z,9.40
2017-12-30T04:44:04.676Z,13.40
2017-12-30T04:45:11.385Z,15.70
2017-12-30T04:46:18.115Z,10.40
2017-12-30T04:47:24.840Z,10.60
2017-12-30T04:48:31.625Z,13.30
2017-12-30T04:49:38.397Z,14.70
2017-12-30T04:50:45.128Z,8.50
2017-12-30T04:51:51.836Z,11.20
2017-12-30T04:52:58.686Z,13.20
2017-12-30T04:54:05.452Z,15.30
2017-12-30T04:55:12.197Z,10.60
2017-12-30T04:56:18.913Z,12.20
2017-12-30T04:57:25.788Z,11.10
2017-12-30T04:58:32.480Z,13.20
2017-12-30T04:59:39.228Z,11.10
2017-12-30T05:00:45.989Z,11.40
2017-12-30T05:01:52.719Z,14.50
2017-12-30T05:02:59.500Z,20.30
2017-12-30T05:04:06.446Z,15.30
2017-12-30T05:05:13.325Z,15.60
2017-12-30T05:06:20.108Z,11.80
2017-12-30T05:07:26.899Z,14.30
2017-12-30T05:08:33.720Z,11.10
2017-12-30T05:09:40.477Z,11.80
2017-12-30T05:10:47.218Z,11.50
2017-12-30T05:11:53.952Z,10.60
2017-12-30T05:13:00.785Z,15.00
2017-12-30T05:14:07.553Z,11.10
2017-12-30T05:15:14.301Z,12.40
2017-12-30T05:16:21.035Z,6.50
2017-12-30T05:17:27.833Z,13.70
2017-12-30T05:18:34.722Z,12.10
2017-12-30T05:19:41.477Z,11.90
2017-12-30T05:20:48.296Z,12.60
2017-12-30T05:21:55.028Z,17.70
2017-12-30T05:23:01.788Z,10.90
2017-12-30T05:24:08.522Z,11.30
2017-12-30T05:25:15.388Z,13.60
2017-12-30T05:26:22.146Z,13.60
2017-12-30T05:27:28.860Z,11.00
2017-12-30T05:28:35.625Z,17.20
2017-12-30T05:29:42.340Z,10.20
2017-12-30T05:30:49.149Z,11.50
2017-12-30T05:31:55.899Z,14.80
2017-12-30T05:33:02.642Z,13.90
2017-12-30T05:34:09.401Z,7.70
2017-12-30T05:35:16.229Z,10.60
2017-12-30T05:36:22.999Z,12.30
2017-12-30T05:37:29.745Z,11.30
2017-12-30T05:38:36.508Z,12.20
2017-12-30T05:39:43.323Z,13.90
2017-12-30T05:40:50.092Z,8.10
2017-12-30T05:41:56.832Z,12.10
2017-12-30T05:43:03.572Z,12.10
2017-12-30T05:44:10.289Z,10.60
2017-12-30T05:45:17.188Z,15.50
2017-12-30T05:46:23.969Z,12.70
2017-12-30T05:47:30.693Z,14.50
2017-12-30T05:48:37.392Z,13.40
2017-12-30T05:49:44.174Z,8.50
2017-12-30T05:50:50.895Z,17.30
2017-12-30T05:51:57.677Z,8.50
2017-12-30T05:53:04.414Z,8.50
2017-12-30T05:54:11.132Z,6.80
2017-12-30T05:55:17.933Z,9.00
2017-12-30T05:56:24.728Z,9.70
2017-12-30T05:57:31.459Z,13.90
2017-12-30T05:58:38.391Z,9.70
2017-12-30T05:59:45.121Z,11.50
2017-12-30T06:00:51.896Z,7.90
2017-12-30T06:01:58.672Z,11.10
2017-12-30T06:03:05.484Z,11.00
2017-12-30T06:04:17.410Z,9.30
2017-12-30T06:05:19.307Z,11.00
2017-12-30T06:06:26.455Z,9.60
2017-12-30T06:07:33.367Z,8.30
2017-12-30T06:08:40.258Z,8.80
2017-12-30T06:09:47.177Z,13.40
2017-12-30T06:10:54.009Z,12.10
2017-12-30T06:12:00.809Z,7.10
2017-12-30T06:13:07.630Z,8.30
2017-12-30T06:14:14.489Z,11.00
2017-12-30T06:15:21.305Z,11.00
2017-12-30T06:16:28.119Z,9.10
2017-12-30T06:17:34.973Z,10.10
2017-12-30T06:18:41.756Z,9.10
2017-12-30T06:19:48.586Z,5.30
2017-12-30T06:20:55.425Z,8.40
2017-12-30T06:22:02.282Z,6.50
2017-12-30T06:23:09.188Z,6.60
2017-12-30T06:24:16.048Z,7.30
2017-12-30T06:25:22.944Z,6.00
2017-12-30T06:26:29.749Z,8.10
2017-12-30T06:27:36.600Z,8.90
2017-12-30T06:28:43.447Z,8.80
2017-12-30T06:29:50.277Z,7.00
2017-12-30T06:30:57.184Z,9.40
2017-12-30T06:32:03.985Z,7.90
2017-12-30T06:33:10.781Z,4.00
2017-12-30T06:34:17.653Z,10.20
2017-12-30T06:35:24.478Z,8.70
2017-12-30T06:36:31.476Z,6.70
2017-12-30T06:37:38.296Z,6.00
2017-12-30T06:38:45.121Z,5.30
2017-12-30T06:39:52.001Z,5.20
2017-12-30T06:40:58.830Z,6.70
2017-12-30T06:42:05.692Z,6.20
2017-12-30T06:43:12.501Z,4.70
2017-12-30T06:44:19.381Z,4.80
2017-12-30T06:45:26.238Z,4.90
2017-12-30T06:46:33.093Z,10.40
2017-12-30T06:47:39.949Z,5.80
2017-12-30T06:48:46.828Z,6.30
2017-12-30T06:49:53.735Z,7.20
2017-12-30T06:51:00.562Z,6.20
2017-12-30T06:52:07.512Z,5.00
2017-12-30T06:53:14.336Z,5.70
2017-12-30T06:54:21.230Z,4.50
2017-12-30T06:55:28.092Z,4.80
2017-12-30T06:56:34.955Z,3.50
2017-12-30T06:57:41.786Z,4.10
2017-12-30T06:58:48.653Z,3.70
2017-12-30T06:59:55.607Z,5.50
2017-12-30T07:01:02.477Z,4.30
2017-12-30T07:02:09.365Z,5.00
2017-12-30T07:03:16.233Z,4.40
2017-12-30T07:04:23.151Z,5.00
2017-12-30T07:05:29.985Z,4.50
2017-12-30T07:06:36.789Z,4.90
2017-12-30T07:07:43.645Z,3.30
2017-12-30T07:08:50.440Z,4.50
2017-12-30T07:09:57.540Z,6.80
2017-12-30T07:11:04.375Z,4.70
2017-12-30T07:12:11.208Z,4.40
2017-12-30T07:13:18.086Z,4.20
2017-12-30T07:14:25.005Z,4.20
2017-12-30T07:15:31.908Z,3.70
2017-12-30T07:16:38.785Z,3.10
2017-12-30T07:17:45.608Z,6.30
2017-12-30T07:18:52.573Z,2.80
2017-12-30T07:19:59.396Z,2.00
2017-12-30T07:21:06.253Z,2.60
2017-12-30T07:22:13.084Z,4.70
2017-12-30T07:23:19.937Z,2.60
2017-12-30T07:24:26.784Z,4.40
2017-12-30T07:25:33.633Z,3.40
2017-12-30T07:26:40.485Z,2.50
2017-12-30T07:27:47.385Z,3.50
2017-12-30T07:28:54.237Z,6.20
2017-12-30T07:30:01.057Z,3.00
2017-12-30T07:31:07.921Z,2.30
2017-12-30T07:32:14.841Z,3.00
2017-12-30T07:33:21.690Z,4.00
2017-12-30T07:34:28.634Z,2.00
2017-12-30T07:35:35.480Z,2.90
2017-12-30T07:36:42.458Z,3.10
2017-12-30T07:37:49.299Z,2.50
2017-12-30T07:38:56.221Z,2.80
2017-12-30T07:40:03.085Z,5.50
2017-12-30T07:41:10.007Z,7.80
2017-12-30T07:42:16.873Z,6.20
2017-12-30T07:43:23.690Z,7.10
2017-12-30T07:44:30.573Z,4.40
2017-12-30T07:45:37.415Z,3.80
2017-12-30T07:46:44.264Z,6.30
2017-12-30T07:47:51.129Z,8.60
2017-12-30T07:48:58.028Z,6.40
2017-12-30T07:50:04.937Z,5.80
2017-12-30T07:51:11.853Z,3.10
2017-12-30T07:52:18.743Z,1.70
2017-12-30T07:53:25.651Z,1.90
2017-12-30T07:54:32.485Z,2.00
2017-12-30T07:55:39.313Z,2.50
2017-12-30T07:56:46.104Z,2.40
2017-12-30T07:57:52.959Z,2.30
2017-12-30T07:58:59.915Z,2.00
2017-12-30T08:00:06.803Z,1.60
2017-12-30T08:01:13.716Z,2.70
2017-12-30T08:02:20.561Z,2.00
2017-12-30T08:03:27.380Z,2.20
2017-12-30T08:04:34.206Z,2.30
2017-12-30T08:05:41.013Z,2.30
2017-12-30T08:06:47.840Z,2.40
2017-12-30T08:07:54.701Z,1.90
2017-12-30T08:09:01.521Z,2.10
2017-12-30T08:10:08.529Z,2.80
2017-12-30T08:11:15.369Z,1.80
2017-12-30T08:12:22.244Z,1.90
2017-12-30T08:13:29.224Z,1.80
2017-12-30T08:14:36.196Z,1.70
2017-12-30T08:15:43.344Z,1.90
2017-12-30T08:16:50.440Z,2.10
2017-12-30T08:17:57.349Z,1.80
2017-12-30T08:19:04.258Z,2.00
2017-12-30T08:20:11.167Z,2.00
2017-12-30T08:21:17.983Z,2.30
2017-12-30T08:22:24.805Z,2.10
2017-12-30T08:23:31.741Z,2.00
2017-12-30T08:24:38.524Z,2.30
2017-12-30T08:25:45.319Z,2.20
2017-12-30T08:26:52.168Z,2.30
2017-12-30T08:27:58.988Z,2.00
2017-12-30T08:29:05.798Z,3.30
2017-12-30T08:30:12.648Z,2.40
2017-12-30T08:31:19.443Z,2.10
2017-12-30T08:32:26.235Z,2.20
2017-12-30T08:33:33.093Z,2.00
2017-12-30T08:34:39.874Z,1.90
2017-12-30T08:35:46.785Z,2.20
2017-12-30T08:36:53.547Z,1.80
2017-12-30T08:38:00.293Z,1.80
2017-12-30T08:39:07.088Z,1.90
2017-12-30T08:40:14.005Z,2.70
2017-12-30T08:41:20.781Z,2.90
2017-12-30T08:42:27.555Z,2.70
2017-12-30T08:43:34.444Z,2.60
2017-12-30T08:44:41.187Z,2.80
2017-12-30T08:45:47.967Z,3.50
2017-12-30T08:46:54.715Z,3.40
2017-12-30T08:48:01.552Z,2.30
2017-12-30T08:49:08.436Z,2.10
2017-12-30T08:50:15.220Z,1.90
2017-12-30T08:51:22.016Z,1.60
2017-12-30T08:52:28.807Z,1.90
2017-12-30T08:53:35.564Z,2.00
2017-12-30T08:54:42.312Z,2.10
2017-12-30T08:55:49.103Z,1.80
2017-12-30T08:56:55.857Z,2.20
2017-12-30T08:58:02.628Z,2.20
2017-12-30T08:59:09.404Z,2.50
2017-12-30T09:00:16.228Z,2.30
2017-12-30T09:01:22.989Z,2.10
2017-12-30T09:02:29.832Z,2.20
2017-12-30T09:03:36.652Z,1.60
2017-12-30T09:04:43.419Z,2.40
2017-12-30T09:05:50.185Z,2.50
2017-12-30T09:06:56.924Z,2.80
2017-12-30T09:08:03.855Z,2.40
2017-12-30T09:09:10.607Z,2.80
2017-12-30T09:10:17.361Z,2.70
2017-12-30T09:11:24.199Z,2.80
2017-12-30T09:12:30.962Z,21.50
2017-12-30T09:13:37.728Z,27.50
2017-12-30T09:14:44.460Z,14.80
2017-12-30T09:15:51.291Z,4.20
2017-12-30T09:16:58.044Z,2.60
2017-12-30T09:18:04.793Z,2.50
2017-12-30T09:19:11.545Z,2.10
2017-12-30T09:20:18.316Z,1.80
2017-12-30T09:21:25.052Z,2.00
2017-12-30T09:22:31.892Z,2.30
2017-12-30T09:23:38.609Z,3.60
2017-12-30T09:24:45.366Z,4.50
2017-12-30T09:25:52.076Z,5.40
2017-12-30T09:26:58.831Z,4.40
2017-12-30T09:28:05.557Z,12.20
2017-12-30T09:29:12.429Z,2.90
2017-12-30T09:30:19.211Z,3.20
2017-12-30T09:31:25.940Z,10.10
2017-12-30T09:32:32.711Z,12.90
2017-12-30T09:33:40.403Z,3.20
2017-12-30T09:34:46.613Z,2.00
2017-12-30T09:35:53.315Z,1.80
2017-12-30T09:37:00.039Z,2.00
2017-12-30T09:38:06.879Z,1.70
2017-12-30T09:39:13.688Z,2.20
2017-12-30T09:40:20.395Z,2.20
2017-12-30T09:41:27.104Z,2.70
2017-12-30T09:42:33.900Z,2.30
2017-12-30T09:43:40.640Z,2.50
2017-12-30T09:44:47.395Z,2.90
2017-12-30T09:45:54.095Z,2.60
2017-12-30T09:47:00.836Z,2.60
2017-12-30T09:48:07.543Z,3.30
2017-12-30T09:49:14.284Z,2.40
2017-12-30T09:50:21.005Z,1.70
2017-12-30T09:51:27.792Z,1.60
2017-12-30T09:52:34.476Z,1.80
2017-12-30T09:53:41.277Z,3.50
2017-12-30T09:54:48.002Z,1.70
2017-12-30T09:55:54.707Z,1.90
2017-12-30T09:57:01.532Z,1.80
2017-12-30T09:58:08.217Z,1.70
2017-12-30T09:59:15.049Z,1.80
2017-12-30T10:00:21.799Z,1.80
2017-12-30T10:01:28.489Z,10.50
2017-12-30T10:02:35.299Z,88.60
2017-12-30T10:03:42.004Z,45.90
2017-12-30T10:04:48.836Z,8.70
2017-12-30T10:05:55.582Z,6.90
2017-12-30T10:07:02.260Z,10.40
2017-12-30T10:08:09.068Z,4.50
2017-12-30T10:09:15.764Z,3.50
2017-12-30T10:10:22.481Z,3.60
2017-12-30T10:11:29.241Z,3.80
2017-12-30T10:12:35.954Z,5.80
2017-12-30T10:13:42.639Z,17.00
2017-12-30T10:14:49.500Z,19.70
2017-12-30T10:15:56.275Z,6.90
2017-12-30T10:17:03.037Z,4.80
2017-12-30T10:18:09.760Z,4.10
2017-12-30T10:19:16.604Z,4.00
2017-12-30T10:20:23.399Z,4.90
2017-12-30T10:21:30.141Z,7.00
2017-12-30T10:22:36.891Z,6.90
2017-12-30T10:23:43.717Z,4.20
2017-12-30T10:24:50.460Z,3.10
2017-12-30T10:25:57.240Z,3.00
2017-12-30T10:27:03.987Z,2.70
2017-12-30T10:28:10.801Z,3.20
2017-12-30T10:29:17.568Z,3.80
2017-12-30T10:30:24.332Z,3.50
2017-12-30T10:31:31.096Z,2.70
2017-12-30T10:32:37.888Z,4.30
2017-12-30T10:33:44.621Z,4.10
2017-12-30T10:34:51.401Z,3.80
2017-12-30T10:35:58.156Z,3.50
2017-12-30T10:37:05.047Z,2.40
2017-12-30T10:38:12.176Z,3.10
2017-12-30T10:39:18.928Z,3.70
2017-12-30T10:40:25.669Z,7.40
2017-12-30T10:41:32.444Z,3.50
2017-12-30T10:42:39.224Z,8.90
2017-12-30T10:43:45.985Z,11.50
2017-12-30T10:44:52.735Z,8.20
2017-12-30T10:45:59.665Z,31.90
2017-12-30T10:47:06.430Z,26.40
2017-12-30T10:48:13.204Z,45.60
2017-12-30T10:49:19.937Z,22.10
2017-12-30T10:50:26.767Z,3.80
2017-12-30T10:51:33.603Z,6.50
2017-12-30T10:52:40.596Z,6.70
2017-12-30T10:53:47.353Z,5.40
2017-12-30T10:54:54.108Z,15.10
2017-12-30T10:56:00.837Z,10.70
2017-12-30T10:57:07.817Z,8.40
2017-12-30T10:58:14.618Z,6.20
2017-12-30T10:59:21.468Z,16.20
2017-12-30T11:00:28.228Z,8.40
2017-12-30T11:01:35.112Z,4.20
2017-12-30T11:02:41.932Z,3.90
2017-12-30T11:03:48.682Z,4.90
2017-12-30T11:04:55.435Z,7.70
2017-12-30T11:06:02.168Z,87.30
2017-12-30T11:07:09.028Z,27.90
2017-12-30T11:08:15.815Z,25.50
2017-12-30T11:09:22.552Z,10.20
2017-12-30T11:10:29.305Z,15.00
2017-12-30T11:11:36.101Z,35.30
2017-12-30T11:12:42.844Z,10.80
2017-12-30T11:13:49.724Z,14.70
2017-12-30T11:14:56.541Z,4.40
2017-12-30T11:16:03.284Z,8.20
2017-12-30T11:17:10.050Z,9.20
2017-12-30T11:18:16.812Z,12.10
2017-12-30T11:19:23.653Z,18.30
2017-12-30T11:20:30.422Z,65.00
2017-12-30T11:21:37.168Z,16.30
2017-12-30T11:22:43.944Z,19.10
2017-12-30T11:23:50.851Z,20.30
2017-12-30T11:24:57.585Z,28.40
2017-12-30T11:26:04.340Z,19.80
2017-12-30T11:27:11.187Z,17.40
2017-12-30T11:28:17.933Z,16.50
2017-12-30T11:29:24.745Z,17.00
2017-12-30T11:30:31.463Z,16.30
2017-12-30T11:31:38.292Z,16.80
2017-12-30T11:32:45.060Z,18.40
2017-12-30T11:33:51.896Z,19.70
2017-12-30T11:34:59.000Z,63.10
2017-12-30T11:36:05.751Z,156.70
2017-12-30T11:37:12.565Z,23.40
2017-12-30T11:38:19.332Z,21.90
2017-12-30T11:39:26.130Z,35.00
2017-12-30T11:40:32.987Z,39.40
2017-12-30T11:41:39.803Z,31.60
2017-12-30T11:42:46.568Z,22.70
2017-12-30T11:43:53.426Z,25.60
2017-12-30T11:45:00.207Z,27.90
2017-12-30T11:46:06.983Z,58.20
2017-12-30T11:47:13.839Z,57.30
2017-12-30T11:48:20.607Z,28.20
2017-12-30T11:49:27.371Z,25.80
2017-12-30T11:50:34.129Z,21.10
2017-12-30T11:51:40.917Z,24.20
2017-12-30T11:52:47.691Z,32.50
2017-12-30T11:53:54.472Z,25.00
2017-12-30T11:55:01.389Z,27.60
2017-12-30T11:56:08.277Z,24.30
2017-12-30T11:57:15.147Z,16.80
2017-12-30T11:58:21.901Z,23.20
2017-12-30T11:59:28.651Z,17.40
2017-12-30T12:00:35.424Z,20.50
2017-12-30T12:01:42.220Z,27.00
2017-12-30T12:02:48.985Z,27.80
2017-12-30T12:03:55.728Z,26.70
2017-12-30T12:05:02.464Z,31.30
2017-12-30T12:06:09.330Z,32.20
2017-12-30T12:07:16.098Z,21.00
2017-12-30T12:08:22.848Z,20.00
2017-12-30T12:09:29.579Z,29.00
2017-12-30T12:10:36.382Z,24.70
2017-12-30T12:11:43.163Z,32.20
2017-12-30T12:12:49.975Z,31.10
2017-12-30T12:13:56.844Z,25.00
2017-12-30T12:15:03.687Z,27.20
2017-12-30T12:16:10.452Z,32.20
2017-12-30T12:17:17.232Z,25.90
2017-12-30T12:18:24.056Z,27.30
2017-12-30T12:19:30.861Z,36.10
2017-12-30T12:20:37.663Z,73.70
2017-12-30T12:21:44.452Z,36.40
2017-12-30T12:22:51.212Z,26.30
2017-12-30T12:23:57.947Z,32.50
2017-12-30T12:25:04.797Z,28.90
2017-12-30T12:26:11.544Z,25.90
2017-12-30T12:27:18.624Z,27.60
2017-12-30T12:28:25.383Z,28.20
2017-12-30T12:29:32.121Z,35.10
2017-12-30T12:30:38.979Z,20.90
2017-12-30T12:31:45.748Z,35.90
2017-12-30T12:32:52.536Z,38.90
2017-12-30T12:33:59.411Z,24.40
2017-12-30T12:35:06.185Z,29.40
2017-12-30T12:36:12.932Z,29.30
2017-12-30T12:37:19.724Z,30.80
2017-12-30T12:38:26.500Z,36.30
2017-12-30T12:39:33.236Z,22.60
2017-12-30T12:40:39.995Z,31.70
2017-12-30T12:41:46.771Z,32.60
2017-12-30T12:42:53.666Z,29.80
2017-12-30T12:44:00.556Z,38.50
2017-12-30T12:45:07.385Z,29.70
2017-12-30T12:46:14.143Z,36.10
2017-12-30T12:47:20.944Z,36.10
2017-12-30T12:48:27.808Z,33.10
2017-12-30T12:49:34.577Z,28.20
2017-12-30T12:50:41.379Z,26.60
2017-12-30T12:51:48.312Z,34.30
2017-12-30T12:52:55.088Z,38.30
2017-12-30T12:54:01.819Z,55.40
2017-12-30T12:55:08.672Z,26.50
2017-12-30T12:56:15.420Z,34.80
2017-12-30T12:57:22.193Z,27.30
2017-12-30T12:58:28.957Z,37.20
2017-12-30T12:59:35.707Z,32.20
2017-12-30T13:00:42.419Z,25.10
2017-12-30T13:01:49.169Z,26.70
2017-12-30T13:02:55.935Z,40.20
2017-12-30T13:04:02.723Z,30.00
2017-12-30T13:05:09.452Z,27.60
2017-12-30T13:06:16.178Z,26.20
2017-12-30T13:07:22.940Z,30.20
2017-12-30T13:08:29.720Z,34.70
2017-12-30T13:09:36.512Z,33.10
2017-12-30T13:10:43.233Z,27.40
2017-12-30T13:11:50.055Z,29.40
2017-12-30T13:12:56.781Z,30.90
2017-12-30T13:14:03.596Z,25.70
2017-12-30T13:15:10.377Z,37.70
2017-12-30T13:16:17.143Z,29.30
2017-12-30T13:17:23.884Z,25.80
2017-12-30T13:18:30.671Z,36.20
2017-12-30T13:19:37.408Z,34.20
2017-12-30T13:20:44.224Z,25.90
2017-12-30T13:21:51.020Z,33.20
2017-12-30T13:22:57.937Z,33.30
2017-12-30T13:24:04.707Z,20.90
2017-12-30T13:25:11.509Z,34.00
2017-12-30T13:26:18.282Z,27.10
2017-12-30T13:27:25.115Z,29.00
2017-12-30T13:28:32.011Z,44.60
2017-12-30T13:29:38.743Z,42.70
2017-12-30T13:30:45.515Z,34.00
2017-12-30T13:31:52.261Z,33.30
2017-12-30T13:32:59.199Z,37.40
2017-12-30T13:34:06.196Z,29.20
2017-12-30T13:35:12.958Z,34.00
2017-12-30T13:36:19.859Z,35.10
2017-12-30T13:37:26.686Z,31.30
2017-12-30T13:38:33.473Z,20.30
2017-12-30T13:39:40.317Z,28.30
2017-12-30T13:40:47.048Z,30.70
2017-12-30T13:41:53.871Z,36.90
2017-12-30T13:43:01.292Z,26.30
2017-12-30T13:44:07.752Z,41.70
2017-12-30T13:45:14.512Z,33.70
2017-12-30T13:46:21.261Z,26.40
2017-12-30T13:47:27.979Z,29.90
2017-12-30T13:48:34.744Z,34.00
2017-12-30T13:49:41.500Z,42.40
2017-12-30T13:50:48.352Z,30.50
2017-12-30T13:51:55.093Z,25.30
2017-12-30T13:53:01.836Z,31.90
2017-12-30T13:54:08.620Z,39.40
2017-12-30T13:55:16.225Z,33.30
2017-12-30T13:56:22.215Z,28.10
2017-12-30T13:57:29.071Z,29.70
2017-12-30T13:58:35.856Z,25.50
2017-12-30T13:59:42.719Z,29.80
2017-12-30T14:00:49.444Z,27.90
2017-12-30T14:01:56.131Z,29.40
2017-12-30T14:03:02.913Z,30.00
2017-12-30T14:04:09.607Z,29.90
2017-12-30T14:05:16.320Z,23.30
2017-12-30T14:06:23.033Z,28.50
2017-12-30T14:07:29.748Z,27.20
2017-12-30T14:08:36.547Z,32.50
2017-12-30T14:09:43.305Z,25.90
2017-12-30T14:10:50.006Z,23.60
2017-12-30T14:11:56.735Z,30.30
2017-12-30T14:13:03.437Z,31.10
2017-12-30T14:14:10.164Z,23.80
2017-12-30T14:15:16.877Z,32.00
2017-12-30T14:16:23.679Z,23.20
2017-12-30T14:17:30.390Z,28.20
2017-12-30T14:18:37.084Z,29.80
2017-12-30T14:19:43.795Z,21.60
2017-12-30T14:20:50.497Z,26.00
2017-12-30T14:21:57.217Z,29.00
2017-12-30T14:23:03.967Z,30.50
2017-12-30T14:24:10.665Z,28.50
2017-12-30T14:25:17.391Z,28.50
2017-12-30T14:26:24.146Z,23.00
2017-12-30T14:27:30.848Z,29.80
2017-12-30T14:28:37.630Z,21.40
2017-12-30T14:29:44.317Z,28.70
2017-12-30T14:30:50.980Z,29.20
2017-12-30T14:31:57.684Z,28.60